LIRQ/FLR METAR and TAF weather

Enter ICAO airport designator
Station Type Date Time Source
LIRQ METAR 2021/09/27 06:20 UTC NOAA

LIRQ 270620Z VRB02KT 9999 FEW018 BKN030 18/17 Q1017


Station Type Date Time Source
LIRQ Decoded METAR 2021/09/27 06:20 UTC NOAA

Firenze / Peretola, Italy (LIRQ) 43-48N 011-12E 38M
Sep 27, 2021 - 02:20 AM EDT / 2021.09.27 0620 UTC
Wind: Variable at 2 MPH (2 KT):0
Visibility: greater than 7 mile(s):0
Sky conditions: mostly cloudy
Temperature: 64 F (18 C)
Dew Point: 62 F (17 C)
Relative Humidity: 93%
Pressure (altimeter): 30.03 in. Hg (1017 hPa)
ob: LIRQ 270620Z VRB02KT 9999 FEW018 BKN030 18/17 Q1017
cycle: 6

Station Type Date Time Source
LIRQ TAF 2021/09/27 06:21 UTC NOAA

TAF LIRQ 270500Z 2706/2806 VRB05KT 9999 SCT020

Example: see airport list